sensor_id;sensor_type;location;lat;lon;timestamp;P1;durP1;ratioP1;P2;durP2;ratioP2
74912;SDS011;63878;55.624;37.304;2023-08-30T00:00:35;15.52;;;8.00;;
74912;SDS011;63878;55.624;37.304;2023-08-30T00:10:35;11.73;;;7.63;;
74912;SDS011;63878;55.624;37.304;2023-08-30T00:20:35;10.63;;;6.88;;
74912;SDS011;63878;55.624;37.304;2023-08-30T00:30:36;12.98;;;7.88;;
74912;SDS011;63878;55.624;37.304;2023-08-30T00:40:39;13.93;;;7.22;;
74912;SDS011;63878;55.624;37.304;2023-08-30T00:50:40;14.13;;;7.55;;
74912;SDS011;63878;55.624;37.304;2023-08-30T01:00:41;15.90;;;9.07;;
74912;SDS011;63878;55.624;37.304;2023-08-30T01:10:46;17.25;;;9.55;;
74912;SDS011;63878;55.624;37.304;2023-08-30T01:20:53;15.18;;;9.02;;
74912;SDS011;63878;55.624;37.304;2023-08-30T01:30:55;12.57;;;7.65;;
74912;SDS011;63878;55.624;37.304;2023-08-30T01:40:56;14.30;;;9.55;;
74912;SDS011;63878;55.624;37.304;2023-08-30T01:50:58;14.15;;;9.38;;
74912;SDS011;63878;55.624;37.304;2023-08-30T02:00:59;13.57;;;7.67;;
74912;SDS011;63878;55.624;37.304;2023-08-30T02:11:02;13.95;;;9.40;;
74912;SDS011;63878;55.624;37.304;2023-08-30T02:21:07;12.52;;;7.78;;
74912;SDS011;63878;55.624;37.304;2023-08-30T02:31:08;11.77;;;7.30;;
74912;SDS011;63878;55.624;37.304;2023-08-30T02:41:08;9.57;;;6.22;;
74912;SDS011;63878;55.624;37.304;2023-08-30T02:51:08;10.20;;;6.88;;
74912;SDS011;63878;55.624;37.304;2023-08-30T03:01:09;10.43;;;6.28;;
74912;SDS011;63878;55.624;37.304;2023-08-30T03:11:13;6.93;;;4.68;;
74912;SDS011;63878;55.624;37.304;2023-08-30T03:21:14;8.70;;;5.97;;
74912;SDS011;63878;55.624;37.304;2023-08-30T03:31:15;7.97;;;5.20;;
74912;SDS011;63878;55.624;37.304;2023-08-30T03:41:17;6.68;;;4.53;;
74912;SDS011;63878;55.624;37.304;2023-08-30T03:51:18;7.88;;;5.18;;
74912;SDS011;63878;55.624;37.304;2023-08-30T04:01:18;6.45;;;4.75;;
74912;SDS011;63878;55.624;37.304;2023-08-30T04:11:19;8.65;;;5.60;;
74912;SDS011;63878;55.624;37.304;2023-08-30T04:21:19;10.30;;;6.32;;
74912;SDS011;63878;55.624;37.304;2023-08-30T04:31:20;10.38;;;5.95;;
74912;SDS011;63878;55.624;37.304;2023-08-30T04:41:20;12.10;;;6.70;;
74912;SDS011;63878;55.624;37.304;2023-08-30T04:51:21;9.05;;;5.68;;
74912;SDS011;63878;55.624;37.304;2023-08-30T05:01:21;10.85;;;6.45;;
74912;SDS011;63878;55.624;37.304;2023-08-30T05:11:21;9.05;;;6.65;;
74912;SDS011;63878;55.624;37.304;2023-08-30T05:21:22;10.82;;;5.63;;
74912;SDS011;63878;55.624;37.304;2023-08-30T05:31:22;10.50;;;5.47;;
74912;SDS011;63878;55.624;37.304;2023-08-30T05:41:23;10.38;;;6.05;;
74912;SDS011;63878;55.624;37.304;2023-08-30T05:51:23;10.75;;;5.72;;
74912;SDS011;63878;55.624;37.304;2023-08-30T06:01:24;10.02;;;6.22;;
74912;SDS011;63878;55.624;37.304;2023-08-30T06:11:24;10.10;;;6.23;;
74912;SDS011;63878;55.624;37.304;2023-08-30T06:21:25;6.75;;;4.60;;
74912;SDS011;63878;55.624;37.304;2023-08-30T06:31:26;8.40;;;6.15;;
74912;SDS011;63878;55.624;37.304;2023-08-30T06:41:26;10.60;;;5.90;;
74912;SDS011;63878;55.624;37.304;2023-08-30T06:51:27;12.30;;;6.13;;
74912;SDS011;63878;55.624;37.304;2023-08-30T07:01:27;5.85;;;4.88;;
74912;SDS011;63878;55.624;37.304;2023-08-30T07:11:27;7.13;;;4.65;;
74912;SDS011;63878;55.624;37.304;2023-08-30T07:21:28;7.40;;;4.97;;
74912;SDS011;63878;55.624;37.304;2023-08-30T07:31:28;8.85;;;5.22;;
74912;SDS011;63878;55.624;37.304;2023-08-30T07:41:29;5.57;;;3.53;;
74912;SDS011;63878;55.624;37.304;2023-08-30T07:51:30;8.50;;;4.45;;
74912;SDS011;63878;55.624;37.304;2023-08-30T08:01:30;6.68;;;4.38;;
74912;SDS011;63878;55.624;37.304;2023-08-30T08:11:31;7.38;;;3.28;;
74912;SDS011;63878;55.624;37.304;2023-08-30T08:21:31;5.45;;;4.20;;
74912;SDS011;63878;55.624;37.304;2023-08-30T08:31:32;5.87;;;3.43;;
74912;SDS011;63878;55.624;37.304;2023-08-30T08:41:39;8.07;;;3.67;;
74912;SDS011;63878;55.624;37.304;2023-08-30T08:51:41;10.35;;;3.67;;
74912;SDS011;63878;55.624;37.304;2023-08-30T09:01:42;8.85;;;4.78;;
74912;SDS011;63878;55.624;37.304;2023-08-30T09:11:43;5.37;;;3.83;;
74912;SDS011;63878;55.624;37.304;2023-08-30T09:21:59;6.40;;;4.68;;
74912;SDS011;63878;55.624;37.304;2023-08-30T09:32:00;8.55;;;2.95;;
74912;SDS011;63878;55.624;37.304;2023-08-30T09:42:01;4.78;;;2.60;;
74912;SDS011;63878;55.624;37.304;2023-08-30T09:52:02;6.20;;;4.03;;
74912;SDS011;63878;55.624;37.304;2023-08-30T10:02:03;4.47;;;3.85;;
74912;SDS011;63878;55.624;37.304;2023-08-30T10:12:05;8.93;;;3.70;;
74912;SDS011;63878;55.624;37.304;2023-08-30T10:22:07;6.32;;;3.40;;
74912;SDS011;63878;55.624;37.304;2023-08-30T10:32:07;7.15;;;4.38;;
74912;SDS011;63878;55.624;37.304;2023-08-30T10:42:12;5.27;;;3.50;;
74912;SDS011;63878;55.624;37.304;2023-08-30T10:52:14;8.20;;;4.35;;
74912;SDS011;63878;55.624;37.304;2023-08-30T11:02:14;6.33;;;3.70;;
74912;SDS011;63878;55.624;37.304;2023-08-30T11:12:15;4.97;;;3.43;;
74912;SDS011;63878;55.624;37.304;2023-08-30T11:22:18;6.07;;;4.13;;
74912;SDS011;63878;55.624;37.304;2023-08-30T11:32:19;7.00;;;3.95;;
74912;SDS011;63878;55.624;37.304;2023-08-30T11:42:20;5.78;;;2.65;;
74912;SDS011;63878;55.624;37.304;2023-08-30T11:52:25;6.82;;;3.35;;
74912;SDS011;63878;55.624;37.304;2023-08-30T12:02:26;6.07;;;3.40;;
74912;SDS011;63878;55.624;37.304;2023-08-30T12:12:27;9.15;;;5.95;;
74912;SDS011;63878;55.624;37.304;2023-08-30T12:22:45;5.10;;;2.85;;
74912;SDS011;63878;55.624;37.304;2023-08-30T12:32:46;4.43;;;3.78;;
74912;SDS011;63878;55.624;37.304;2023-08-30T12:42:47;4.63;;;3.10;;
74912;SDS011;63878;55.624;37.304;2023-08-30T12:52:47;6.18;;;3.17;;
74912;SDS011;63878;55.624;37.304;2023-08-30T13:02:47;6.63;;;3.47;;
74912;SDS011;63878;55.624;37.304;2023-08-30T13:12:48;4.60;;;2.92;;
74912;SDS011;63878;55.624;37.304;2023-08-30T13:22:48;5.38;;;3.25;;
74912;SDS011;63878;55.624;37.304;2023-08-30T13:32:49;3.92;;;2.65;;
74912;SDS011;63878;55.624;37.304;2023-08-30T13:42:49;4.63;;;2.15;;
74912;SDS011;63878;55.624;37.304;2023-08-30T13:52:50;3.67;;;2.45;;
74912;SDS011;63878;55.624;37.304;2023-08-30T14:02:50;3.60;;;2.25;;
74912;SDS011;63878;55.624;37.304;2023-08-30T14:12:51;4.10;;;2.72;;
74912;SDS011;63878;55.624;37.304;2023-08-30T14:22:51;7.65;;;4.45;;
74912;SDS011;63878;55.624;37.304;2023-08-30T14:32:52;12.25;;;5.43;;
74912;SDS011;63878;55.624;37.304;2023-08-30T14:42:52;14.90;;;6.13;;
74912;SDS011;63878;55.624;37.304;2023-08-30T14:52:53;9.25;;;4.57;;
74912;SDS011;63878;55.624;37.304;2023-08-30T15:02:53;8.40;;;4.22;;
74912;SDS011;63878;55.624;37.304;2023-08-30T15:12:53;7.38;;;3.85;;
74912;SDS011;63878;55.624;37.304;2023-08-30T15:22:54;12.75;;;6.28;;
74912;SDS011;63878;55.624;37.304;2023-08-30T15:32:54;6.47;;;3.78;;
74912;SDS011;63878;55.624;37.304;2023-08-30T15:42:55;9.50;;;4.70;;
74912;SDS011;63878;55.624;37.304;2023-08-30T15:52:55;7.82;;;5.35;;
74912;SDS011;63878;55.624;37.304;2023-08-30T16:02:56;11.05;;;5.32;;
74912;SDS011;63878;55.624;37.304;2023-08-30T16:12:56;11.90;;;5.55;;
74912;SDS011;63878;55.624;37.304;2023-08-30T16:22:57;8.45;;;4.90;;
74912;SDS011;63878;55.624;37.304;2023-08-30T16:32:57;7.75;;;6.03;;
74912;SDS011;63878;55.624;37.304;2023-08-30T16:42:57;12.82;;;6.55;;
74912;SDS011;63878;55.624;37.304;2023-08-30T16:52:58;15.02;;;7.60;;
74912;SDS011;63878;55.624;37.304;2023-08-30T17:02:58;19.08;;;9.20;;
74912;SDS011;63878;55.624;37.304;2023-08-30T17:12:59;11.68;;;6.07;;
74912;SDS011;63878;55.624;37.304;2023-08-30T17:22:59;11.10;;;6.68;;
74912;SDS011;63878;55.624;37.304;2023-08-30T17:33:00;11.95;;;6.85;;
74912;SDS011;63878;55.624;37.304;2023-08-30T17:43:00;9.13;;;4.43;;
74912;SDS011;63878;55.624;37.304;2023-08-30T17:53:01;10.93;;;5.97;;
74912;SDS011;63878;55.624;37.304;2023-08-30T18:03:02;25.60;;;10.32;;
74912;SDS011;63878;55.624;37.304;2023-08-30T18:13:03;14.17;;;6.87;;
74912;SDS011;63878;55.624;37.304;2023-08-30T18:23:03;12.95;;;5.70;;
74912;SDS011;63878;55.624;37.304;2023-08-30T18:33:07;11.02;;;5.40;;
74912;SDS011;63878;55.624;37.304;2023-08-30T18:43:07;8.93;;;5.40;;
74912;SDS011;63878;55.624;37.304;2023-08-30T18:53:09;7.95;;;4.45;;
74912;SDS011;63878;55.624;37.304;2023-08-30T19:03:10;6.65;;;4.30;;
74912;SDS011;63878;55.624;37.304;2023-08-30T19:13:10;8.18;;;4.82;;
74912;SDS011;63878;55.624;37.304;2023-08-30T19:23:11;7.25;;;5.22;;
74912;SDS011;63878;55.624;37.304;2023-08-30T19:33:12;6.90;;;4.20;;
74912;SDS011;63878;55.624;37.304;2023-08-30T19:43:12;8.07;;;5.22;;
74912;SDS011;63878;55.624;37.304;2023-08-30T19:53:13;9.05;;;6.13;;
74912;SDS011;63878;55.624;37.304;2023-08-30T20:03:13;12.38;;;6.43;;
74912;SDS011;63878;55.624;37.304;2023-08-30T20:13:14;16.80;;;8.35;;
74912;SDS011;63878;55.624;37.304;2023-08-30T20:23:15;14.73;;;6.45;;
74912;SDS011;63878;55.624;37.304;2023-08-30T20:33:15;12.70;;;7.53;;
74912;SDS011;63878;55.624;37.304;2023-08-30T20:43:16;11.13;;;4.78;;
74912;SDS011;63878;55.624;37.304;2023-08-30T20:53:18;6.60;;;4.72;;
74912;SDS011;63878;55.624;37.304;2023-08-30T21:03:19;8.75;;;4.70;;
74912;SDS011;63878;55.624;37.304;2023-08-30T21:13:20;10.18;;;5.03;;
74912;SDS011;63878;55.624;37.304;2023-08-30T21:23:20;8.18;;;5.10;;
74912;SDS011;63878;55.624;37.304;2023-08-30T21:33:21;8.48;;;6.00;;
74912;SDS011;63878;55.624;37.304;2023-08-30T21:43:21;6.87;;;4.37;;
74912;SDS011;63878;55.624;37.304;2023-08-30T21:53:22;11.63;;;4.97;;
74912;SDS011;63878;55.624;37.304;2023-08-30T22:03:22;20.08;;;8.82;;
74912;SDS011;63878;55.624;37.304;2023-08-30T22:13:23;10.13;;;5.50;;
74912;SDS011;63878;55.624;37.304;2023-08-30T22:23:23;6.55;;;3.88;;
74912;SDS011;63878;55.624;37.304;2023-08-30T22:33:24;7.40;;;4.20;;
74912;SDS011;63878;55.624;37.304;2023-08-30T22:43:24;6.55;;;3.67;;
74912;SDS011;63878;55.624;37.304;2023-08-30T22:53:25;6.50;;;3.90;;
74912;SDS011;63878;55.624;37.304;2023-08-30T23:03:25;8.40;;;4.95;;
74912;SDS011;63878;55.624;37.304;2023-08-30T23:13:26;12.65;;;6.93;;
74912;SDS011;63878;55.624;37.304;2023-08-30T23:23:26;7.10;;;4.83;;
74912;SDS011;63878;55.624;37.304;2023-08-30T23:33:27;6.40;;;3.83;;
74912;SDS011;63878;55.624;37.304;2023-08-30T23:43:27;5.80;;;4.20;;
74912;SDS011;63878;55.624;37.304;2023-08-30T23:53:28;4.40;;;3.25;;
